Time;durP1;ratioP1;P1;durP2;ratioP2;P2;SDS_P1;SDS_P2;PMS_P1;PMS_P2;Temp;Humidity;BMP_temperature;BMP_pressure;BME280_temperature;BME280_humidity;BME280_pressure;Samples;Min_cycle;Max_cycle;Signal;HPM_P1;HPM_P2
2023/01/17 00:01:28;;;;;;;5.07;1.05;;;;;;;-143.48;92.37;118439.88;5076892;28;20024;-27
2023/01/17 00:12:06;;;;;;;5.72;0.70;;;;;;;-143.48;90.89;118439.88;5076702;28;20066;-27
2023/01/17 00:14:31;;;;;;;13.13;1.33;;;;;;;-143.48;91.55;118439.88;5076241;28;20475;-27
2023/01/17 00:16:57;;;;;;;5.20;1.08;;;;;;;-143.48;91.28;118439.88;5076801;28;20112;-27
2023/01/17 01:33:52;;;;;;;7.35;0.77;;;;;;;-143.48;92.99;118439.88;5078577;28;20154;-27
2023/01/17 01:36:18;;;;;;;4.32;0.70;;;;;;;-143.48;93.36;118439.88;5094963;28;20043;-27
2023/01/17 01:38:44;;;;;;;2.33;0.60;;;;;;;-143.48;93.07;118439.88;5094813;28;20028;-26
2023/01/17 01:41:10;;;;;;;4.70;0.77;;;;;;;-143.48;93.12;118439.88;5094497;28;20024;-27
2023/01/17 01:43:47;;;;;;;6.93;0.73;;;;;;;-143.48;93.30;118439.88;5094994;28;20063;-28
2023/01/17 01:46:22;;;;;;;2.15;0.47;;;;;;;-143.48;93.51;118439.88;5094707;28;20107;-27
2023/01/17 01:48:57;;;;;;;6.72;1.08;;;;;;;-143.48;93.19;118439.88;5094953;28;20031;-26
2023/01/17 01:51:31;;;;;;;4.68;0.73;;;;;;;-143.48;94.05;118439.88;5095234;28;20031;-26
2023/01/17 01:54:05;;;;;;;2.50;1.27;;;;;;;-143.48;94.33;118439.88;5094823;28;20474;-27
2023/01/17 01:56:31;;;;;;;5.88;1.10;;;;;;;-143.48;94.10;118439.88;5043431;28;20024;-27
2023/01/17 01:58:58;;;;;;;6.65;0.95;;;;;;;-143.48;93.39;118439.88;5094859;28;20020;-26
2023/01/17 02:01:24;;;;;;;11.38;1.08;;;;;;;-143.48;93.89;118439.88;5076503;28;20024;-27
2023/01/17 02:03:49;;;;;;;5.75;0.88;;;;;;;-143.48;94.28;118439.88;5094869;28;20085;-26
2023/01/17 02:06:44;;;;;;;5.95;1.00;;;;;;;-143.48;93.01;118439.88;5094412;28;20103;-28
2023/01/17 02:09:11;;;;;;;3.00;0.70;;;;;;;-143.48;93.84;118439.88;5091508;28;20059;-27
2023/01/17 02:11:38;;;;;;;4.72;0.93;;;;;;;-143.48;93.63;118439.88;5094189;28;20066;-27
2023/01/17 02:14:04;;;;;;;6.88;1.48;;;;;;;-143.48;93.10;118439.88;5094555;28;20141;-27
2023/01/17 02:16:51;;;;;;;5.43;1.58;;;;;;;-143.48;93.01;118439.88;5094443;28;20027;-27
2023/01/17 02:19:54;;;;;;;13.13;1.52;;;;;;;-143.48;92.78;118439.88;5094422;28;20378;-26
2023/01/17 02:22:40;;;;;;;4.95;0.90;;;;;;;-143.48;92.56;118439.88;5094265;28;20458;-27
2023/01/17 02:25:44;;;;;;;5.60;0.98;;;;;;;-143.48;92.96;118439.88;5075976;28;20047;-27
2023/01/17 02:28:48;;;;;;;5.55;1.38;;;;;;;-143.48;93.01;118439.88;5058486;28;20118;-27
2023/01/17 02:31:36;;;;;;;5.22;1.00;;;;;;;-143.48;91.78;118439.88;5094319;28;20516;-27
2023/01/17 02:34:16;;;;;;;5.28;0.63;;;;;;;-143.48;92.97;118439.88;5093914;28;20051;-27
2023/01/17 02:36:51;;;;;;;10.40;0.95;;;;;;;-143.48;92.59;118439.88;5093086;28;20028;-27
2023/01/17 02:39:21;;;;;;;6.15;0.80;;;;;;;-143.48;92.51;118439.88;5076379;28;20034;-27
2023/01/17 02:41:53;;;;;;;8.25;1.25;;;;;;;-143.48;92.45;118439.88;5094025;28;20036;-27
2023/01/17 02:44:19;;;;;;;8.52;0.75;;;;;;;-143.48;92.28;118439.88;5075508;28;20103;-27
2023/01/17 02:46:50;;;;;;;4.63;0.85;;;;;;;-143.48;91.12;118439.88;5094294;28;20024;-27
2023/01/17 02:49:20;;;;;;;1.95;0.75;;;;;;;-143.48;90.43;118439.88;5093739;28;20526;-27
2023/01/17 02:52:14;;;;;;;3.08;0.63;;;;;;;-143.48;90.42;118439.88;5093021;28;20095;-27
2023/01/17 02:55:13;;;;;;;5.68;0.70;;;;;;;-143.48;90.69;118439.88;5004298;28;20051;-27
2023/01/17 02:58:05;;;;;;;4.15;0.73;;;;;;;-143.48;91.47;118439.88;5093622;28;20076;-27
2023/01/17 03:00:48;;;;;;;3.97;0.60;;;;;;;-143.48;91.15;118439.88;5093455;28;20024;-27
2023/01/17 03:03:32;;;;;;;5.40;0.73;;;;;;;-143.48;91.29;118439.88;5093459;28;20020;-27
2023/01/17 03:06:18;;;;;;;5.30;0.50;;;;;;;-143.48;91.21;118439.88;5093674;28;20028;-27
2023/01/17 03:08:47;;;;;;;6.65;1.08;;;;;;;-143.48;91.48;118439.88;5093778;28;20024;-27
2023/01/17 03:11:13;;;;;;;4.70;0.65;;;;;;;-143.48;91.44;118439.88;5075456;28;20016;-27
2023/01/17 03:13:38;;;;;;;2.67;0.43;;;;;;;-143.48;91.46;118439.88;5093765;28;20022;-27
2023/01/17 03:16:10;;;;;;;4.28;0.70;;;;;;;-143.48;92.36;118439.88;5093203;28;20028;-27
2023/01/17 03:18:35;;;;;;;6.32;0.82;;;;;;;-143.48;92.32;118439.88;5093553;28;20024;-27
2023/01/17 03:21:00;;;;;;;2.00;0.50;;;;;;;-143.48;92.32;118439.88;5093557;28;20032;-27
2023/01/17 03:23:26;;;;;;;2.42;0.60;;;;;;;-143.48;92.26;118439.88;5093647;28;20016;-27
2023/01/17 03:25:51;;;;;;;3.55;0.65;;;;;;;-143.48;92.28;118439.88;5093324;28;20417;-27
2023/01/17 03:28:16;;;;;;;1.23;0.52;;;;;;;-143.48;92.75;118439.88;5093526;28;20024;-26
2023/01/17 03:30:42;;;;;;;3.47;0.60;;;;;;;-143.48;92.27;118439.88;5093650;28;20408;-26
2023/01/17 03:33:07;;;;;;;3.85;0.60;;;;;;;-143.48;92.16;118439.88;5093231;28;20040;-27
2023/01/17 03:35:33;;;;;;;4.25;1.00;;;;;;;-143.48;92.08;118439.88;5093015;28;20040;-27
2023/01/17 03:37:58;;;;;;;4.53;0.73;;;;;;;-143.48;91.88;118439.88;5093418;28;20024;-27
2023/01/17 03:40:23;;;;;;;2.88;0.68;;;;;;;-143.48;92.04;118439.88;5093429;28;20024;-26
2023/01/17 03:42:49;;;;;;;3.67;0.88;;;;;;;-143.48;92.61;118439.88;5093383;28;20417;-27
2023/01/17 03:45:14;;;;;;;7.55;1.05;;;;;;;-143.48;92.25;118439.88;5093471;28;20420;-26
2023/01/17 03:47:40;;;;;;;4.32;1.13;;;;;;;-143.48;91.36;118439.88;5093490;28;20020;-27
2023/01/17 03:50:05;;;;;;;9.05;1.23;;;;;;;-143.48;90.95;118439.88;5093036;28;20074;-26
2023/01/17 03:52:31;;;;;;;5.63;1.10;;;;;;;-143.48;90.82;118439.88;5093368;28;20043;-26
2023/01/17 03:54:56;;;;;;;8.00;1.08;;;;;;;-143.48;91.17;118439.88;5093062;28;20471;-26
2023/01/17 03:57:22;;;;;;;5.72;1.23;;;;;;;-143.48;90.25;118439.88;5093345;28;20028;-27
2023/01/17 03:59:47;;;;;;;4.22;1.08;;;;;;;-143.48;90.74;118439.88;5093290;28;20070;-27
2023/01/17 04:02:13;;;;;;;2.85;1.10;;;;;;;-143.48;91.18;118439.88;5075205;28;20052;-27
2023/01/17 04:04:38;;;;;;;6.28;1.02;;;;;;;-143.48;91.02;118439.88;5078205;28;20020;-27
2023/01/17 04:07:04;;;;;;;4.18;1.10;;;;;;;-143.48;90.45;118439.88;5096681;28;20466;-27
2023/01/17 04:09:32;;;;;;;5.18;1.20;;;;;;;-143.48;90.06;118439.88;5096663;28;20031;-27
2023/01/17 04:11:59;;;;;;;5.70;1.33;;;;;;;-143.48;89.93;118439.88;5096508;28;20020;-26
2023/01/17 04:14:24;;;;;;;5.38;1.50;;;;;;;-143.48;90.43;118439.88;5096969;28;20024;-27
2023/01/17 04:16:49;;;;;;;4.80;1.08;;;;;;;-143.48;90.56;118439.88;5096901;28;20034;-27
2023/01/17 04:19:15;;;;;;;4.78;1.00;;;;;;;-143.48;90.77;118439.88;5096496;28;20471;-27
2023/01/17 04:21:40;;;;;;;2.50;0.63;;;;;;;-143.48;91.04;118439.88;5096605;28;20020;-27
2023/01/17 04:24:06;;;;;;;2.65;0.90;;;;;;;-143.48;91.33;118439.88;5096509;28;20031;-27
2023/01/17 04:26:31;;;;;;;3.58;0.88;;;;;;;-143.48;91.13;118439.88;5096559;28;20359;-27
2023/01/17 04:28:56;;;;;;;6.32;1.35;;;;;;;-143.48;91.26;118439.88;5096546;28;20409;-27
2023/01/17 04:31:22;;;;;;;4.93;1.33;;;;;;;-143.48;91.51;118439.88;5096496;28;20024;-26
2023/01/17 04:33:47;;;;;;;6.88;1.20;;;;;;;-143.48;90.95;118439.88;5096254;28;20467;-27
2023/01/17 04:36:12;;;;;;;4.82;0.93;;;;;;;-143.48;90.80;118439.88;5096130;28;20054;-27
2023/01/17 04:38:37;;;;;;;3.85;0.80;;;;;;;-143.48;91.12;118439.88;5096113;28;20099;-27
2023/01/17 04:41:03;;;;;;;5.50;0.95;;;;;;;-143.48;90.30;118439.88;5095951;28;20115;-26
2023/01/17 04:43:28;;;;;;;6.90;1.00;;;;;;;-143.48;90.49;118439.88;5096235;28;20027;-27
2023/01/17 04:45:56;;;;;;;4.63;1.27;;;;;;;-143.48;90.06;118439.88;5095866;28;20020;-27
2023/01/17 04:48:21;;;;;;;4.65;1.02;;;;;;;-143.48;89.53;118439.88;5096457;28;20034;-27
2023/01/17 04:50:46;;;;;;;7.47;1.20;;;;;;;-143.48;89.65;118439.88;5096117;28;20394;-27
2023/01/17 04:53:11;;;;;;;6.07;1.35;;;;;;;-143.48;90.16;118439.88;5095833;28;20462;-27
2023/01/17 04:55:37;;;;;;;8.93;1.10;;;;;;;-143.48;90.89;118439.88;5077541;28;20044;-27
2023/01/17 04:58:02;;;;;;;8.20;1.48;;;;;;;-143.48;91.49;118439.88;5096493;28;20065;-27
2023/01/17 05:00:27;;;;;;;5.05;1.30;;;;;;;-143.48;91.62;118439.88;5095905;28;20024;-28
2023/01/17 05:02:53;;;;;;;8.77;1.25;;;;;;;-143.48;91.10;118439.88;5095790;28;20028;-28
2023/01/17 05:05:18;;;;;;;5.95;1.58;;;;;;;-143.48;91.36;118439.88;5095620;28;20066;-28
2023/01/17 05:07:52;;;;;;;9.70;1.45;;;;;;;-143.48;91.38;118439.88;5095470;28;20035;-28
2023/01/17 05:10:17;;;;;;;9.05;1.38;;;;;;;-143.48;91.83;118439.88;5095662;28;20023;-28
2023/01/17 05:12:42;;;;;;;6.85;1.38;;;;;;;-143.48;91.59;118439.88;5095768;28;20110;-28
2023/01/17 05:15:08;;;;;;;7.13;1.17;;;;;;;-143.48;91.06;118439.88;5094368;28;20528;-28
2023/01/17 05:17:33;;;;;;;6.18;1.20;;;;;;;-143.48;90.51;118439.88;5095214;28;20024;-28
2023/01/17 05:19:58;;;;;;;7.00;1.08;;;;;;;-143.48;90.26;118439.88;5095682;28;20031;-28
2023/01/17 05:22:24;;;;;;;5.15;1.10;;;;;;;-143.48;90.54;118439.88;5095510;28;20100;-28
2023/01/17 05:24:49;;;;;;;6.22;1.25;;;;;;;-143.48;89.97;118439.88;5077074;28;20119;-28
2023/01/17 05:27:14;;;;;;;5.95;1.08;;;;;;;-143.48;90.35;118439.88;5095123;28;20016;-28
2023/01/17 05:29:40;;;;;;;6.40;1.27;;;;;;;-143.48;90.39;118439.88;5095332;28;20107;-28
2023/01/17 05:32:05;;;;;;;6.80;1.05;;;;;;;-143.48;90.13;118439.88;5095264;28;20016;-28
2023/01/17 05:34:31;;;;;;;4.93;1.05;;;;;;;-143.48;89.90;118439.88;5095362;28;20135;-28
2023/01/17 05:36:56;;;;;;;9.10;1.05;;;;;;;-143.48;90.30;118439.88;5094952;28;20032;-28
2023/01/17 05:39:22;;;;;;;6.78;1.00;;;;;;;-143.48;90.20;118439.88;5094854;28;20020;-28
2023/01/17 05:41:47;;;;;;;7.35;1.13;;;;;;;-143.48;90.25;118439.88;5095025;28;20454;-28
2023/01/17 05:44:14;;;;;;;7.68;1.13;;;;;;;-143.48;90.30;118439.88;5095174;28;20024;-28
2023/01/17 05:46:40;;;;;;;6.75;1.35;;;;;;;-143.48;91.41;118439.88;5094941;28;20020;-28
2023/01/17 05:49:05;;;;;;;6.97;1.35;;;;;;;-143.48;91.10;118439.88;5094759;28;20493;-28
2023/01/17 05:51:31;;;;;;;2.53;0.98;;;;;;;-143.48;89.99;118439.88;5094583;28;20035;-28
2023/01/17 05:53:56;;;;;;;4.47;1.20;;;;;;;-143.48;89.61;118439.88;5094820;28;20027;-28
2023/01/17 05:56:21;;;;;;;3.88;1.23;;;;;;;-143.48;89.69;118439.88;5076625;28;20016;-28
2023/01/17 05:58:47;;;;;;;5.40;1.40;;;;;;;-143.48;88.10;118439.88;5094543;28;20047;-28
2023/01/17 06:01:12;;;;;;;6.07;1.35;;;;;;;-143.48;87.21;118439.88;5094351;28;22374;-28
2023/01/17 06:03:37;;;;;;;3.38;0.90;;;;;;;-143.48;87.67;118439.88;5094524;28;20024;-28
2023/01/17 06:06:03;;;;;;;6.28;1.20;;;;;;;-143.48;87.60;118439.88;5094986;28;20081;-28
2023/01/17 06:08:28;;;;;;;6.43;1.30;;;;;;;-143.48;86.67;118439.88;5094976;28;20466;-28
2023/01/17 06:10:57;;;;;;;6.38;1.90;;;;;;;-143.48;86.40;118439.88;5076458;28;20432;-29
2023/01/17 06:13:23;;;;;;;7.97;2.88;;;;;;;-143.48;85.52;118439.88;5076065;28;20474;-28
2023/01/17 06:15:48;;;;;;;14.75;3.28;;;;;;;-143.48;86.23;118439.88;5094228;28;20028;-29
2023/01/17 06:18:16;;;;;;;10.50;3.45;;;;;;;-143.48;86.12;118439.88;5094212;28;20485;-28
2023/01/17 06:20:42;;;;;;;5.10;1.40;;;;;;;-143.48;85.84;118439.88;5094106;28;20102;-29
2023/01/17 06:23:10;;;;;;;13.02;6.80;;;;;;;-143.48;85.72;118439.88;5075849;28;20024;-28
2023/01/17 06:25:43;;;;;;;16.40;7.30;;;;;;;-143.48;87.19;118439.88;5094390;28;20463;-28
2023/01/17 06:28:09;;;;;;;;;;;;;;;-143.48;86.47;118439.88;5094357;28;20116;-29
2023/01/17 06:30:35;;;;;;;12.82;3.08;;;;;;;-143.48;85.85;118439.88;5093988;28;19951;-28
2023/01/17 06:33:00;;;;;;;3.58;1.27;;;;;;;-143.48;86.17;118439.88;5094423;28;20395;-28
2023/01/17 06:35:26;;;;;;;7.00;2.85;;;;;;;-143.48;86.05;118439.88;5093686;28;20048;-28
2023/01/17 06:37:54;;;;;;;7.38;2.15;;;;;;;-143.48;86.70;118439.88;5093898;28;20077;-28
2023/01/17 06:40:22;;;;;;;11.02;2.13;;;;;;;-143.48;86.70;118439.88;5075751;28;20024;-28
2023/01/17 06:42:48;;;;;;;7.07;1.98;;;;;;;-143.48;87.81;118439.88;5094053;28;20561;-28
2023/01/17 06:45:13;;;;;;;6.97;1.67;;;;;;;-143.48;87.17;118439.88;5093872;28;20055;-28
2023/01/17 06:47:40;;;;;;;10.60;2.80;;;;;;;-143.48;87.27;118439.88;5094280;28;20028;-28
2023/01/17 06:50:06;;;;;;;7.30;1.60;;;;;;;-143.48;87.24;118439.88;5093926;28;20464;-28
2023/01/17 06:52:32;;;;;;;7.75;1.58;;;;;;;-143.48;87.34;118439.88;5094137;28;20051;-28
2023/01/17 06:54:57;;;;;;;8.70;1.40;;;;;;;-143.48;86.61;118439.88;5093727;28;20016;-28
2023/01/17 06:57:22;;;;;;;8.68;1.60;;;;;;;-143.48;87.15;118439.88;5093789;28;20016;-28
2023/01/17 06:59:48;;;;;;;9.23;1.30;;;;;;;-143.48;86.26;118439.88;5093495;28;20028;-28
2023/01/17 07:02:13;;;;;;;9.07;1.83;;;;;;;-143.48;86.24;118439.88;5092706;28;20024;-28
2023/01/17 07:04:38;;;;;;;6.10;1.30;;;;;;;-143.48;86.58;118439.88;5092953;28;20020;-28
2023/01/17 07:07:04;;;;;;;4.60;1.50;;;;;;;-143.48;86.27;118439.88;5073188;28;20074;-28
2023/01/17 07:09:29;;;;;;;7.05;1.38;;;;;;;-143.48;85.88;118439.88;5091271;28;20081;-28
2023/01/17 07:11:59;;;;;;;2.97;1.15;;;;;;;-143.48;86.59;118439.88;5091368;28;20016;-28
2023/01/17 07:14:24;;;;;;;12.10;1.67;;;;;;;-143.48;86.33;118439.88;5091101;28;20462;-29
2023/01/17 07:16:49;;;;;;;6.78;1.40;;;;;;;-143.48;86.01;118439.88;5091306;28;20035;-28
2023/01/17 07:19:15;;;;;;;9.20;1.80;;;;;;;-143.48;86.59;118439.88;5091141;28;20073;-28
2023/01/17 07:21:40;;;;;;;9.75;1.70;;;;;;;-143.48;85.85;118439.88;5091449;28;20089;-28
2023/01/17 07:24:06;;;;;;;9.20;1.83;;;;;;;-143.48;85.33;118439.88;5091509;28;20091;-27
2023/01/17 07:26:32;;;;;;;5.50;1.40;;;;;;;-143.48;85.82;118439.88;5091785;28;20107;-28
2023/01/17 07:28:57;;;;;;;6.38;1.45;;;;;;;-143.48;85.61;118439.88;5092184;28;20482;-28
2023/01/17 07:31:23;;;;;;;5.18;1.75;;;;;;;-143.48;85.39;118439.88;5092852;28;20177;-28
2023/01/17 07:33:48;;;;;;;6.30;1.90;;;;;;;-143.48;86.39;118439.88;5093803;28;20146;-28
2023/01/17 07:36:14;;;;;;;11.63;2.08;;;;;;;-143.48;86.09;118439.88;5093511;28;20024;-29
2023/01/17 07:38:40;;;;;;;10.70;2.05;;;;;;;-143.48;86.48;118439.88;5060678;28;20174;-28
2023/01/17 07:41:05;;;;;;;9.52;1.77;;;;;;;-143.48;87.62;118439.88;5097066;28;20028;-28
2023/01/17 07:43:30;;;;;;;6.38;1.60;;;;;;;-143.48;87.93;118439.88;5097151;28;20478;-28
2023/01/17 07:45:58;;;;;;;7.53;1.73;;;;;;;-143.48;88.33;118439.88;5097012;28;20020;-28
2023/01/17 07:48:23;;;;;;;5.55;1.70;;;;;;;-143.48;87.91;118439.88;5109541;22;20063;-67
2023/01/17 07:50:56;;;;;;;8.65;2.03;;;;;;;-143.48;88.01;118439.88;5076926;28;20483;-69
2023/01/17 07:53:24;;;;;;;6.85;2.10;;;;;;;-143.48;86.33;118439.88;5058456;28;20024;-69
2023/01/17 07:55:50;;;;;;;7.00;1.65;;;;;;;-143.48;84.62;118439.88;5067464;28;20032;-68
2023/01/17 07:58:15;;;;;;;5.63;1.50;;;;;;;-143.48;84.63;118439.88;5085125;28;20028;-68
2023/01/17 08:00:43;;;;;;;5.22;1.52;;;;;;;-143.48;83.96;118439.88;5080913;28;20024;-69
2023/01/17 08:03:12;;;;;;;7.28;1.90;;;;;;;-143.48;84.13;118439.88;5075406;28;20431;-68
2023/01/17 08:05:39;;;;;;;7.45;1.80;;;;;;;-143.48;84.11;118439.88;5080768;28;20013;-68
2023/01/17 08:08:04;;;;;;;3.60;1.70;;;;;;;-143.48;83.95;118439.88;5093872;28;20120;-69
2023/01/17 08:10:29;;;;;;;4.93;1.90;;;;;;;-143.48;83.14;118439.88;5058328;28;20056;-69
2023/01/17 08:12:55;;;;;;;7.35;1.73;;;;;;;-143.48;81.83;118439.88;5074651;28;20028;-70
2023/01/17 08:15:22;;;;;;;5.10;1.60;;;;;;;-143.48;81.99;118439.88;5074215;28;20195;-69
2023/01/17 08:17:51;;;;;;;21.65;1.98;;;;;;;-143.48;81.45;118439.88;5074201;28;20703;-69
2023/01/17 08:20:17;;;;;;;6.63;1.75;;;;;;;-143.48;81.71;118439.88;5074062;28;20025;-68
2023/01/17 08:22:42;;;;;;;7.50;2.03;;;;;;;-143.48;81.37;118439.88;5075386;28;20025;-69
2023/01/17 08:25:08;;;;;;;9.73;1.83;;;;;;;-143.48;80.03;118439.88;5076278;28;20471;-69
2023/01/17 08:27:33;;;;;;;8.13;2.00;;;;;;;-143.48;79.54;118439.88;5076279;28;20059;-70
2023/01/17 08:29:59;;;;;;;9.23;2.10;;;;;;;-143.48;81.08;118439.88;5075868;28;20031;-70
2023/01/17 08:32:24;;;;;;;5.75;1.70;;;;;;;-143.48;79.45;118439.88;5076217;28;20095;-70
2023/01/17 08:34:49;;;;;;;7.57;2.00;;;;;;;-143.48;80.70;118439.88;5075828;28;20427;-69
2023/01/17 08:37:14;;;;;;;7.05;1.90;;;;;;;-143.48;80.11;118439.88;5075129;28;20025;-69
2023/01/17 08:39:40;;;;;;;8.70;2.38;;;;;;;-143.48;80.42;118439.88;5075189;28;20051;-69
2023/01/17 08:42:05;;;;;;;8.75;1.40;;;;;;;-143.48;80.44;118439.88;5075541;28;20051;-69
2023/01/17 08:44:30;;;;;;;10.40;2.13;;;;;;;-143.48;82.68;118439.88;5075137;28;20077;-69
2023/01/17 08:46:56;;;;;;;7.47;1.70;;;;;;;-143.48;82.78;118439.88;5078678;28;20028;-69
2023/01/17 08:49:21;;;;;;;8.10;2.90;;;;;;;-143.48;82.88;118439.88;5066030;28;20144;-68
2023/01/17 08:51:46;;;;;;;10.98;1.75;;;;;;;-143.48;83.87;118439.88;5057726;28;20013;-68
2023/01/17 08:54:14;;;;;;;10.13;2.05;;;;;;;-143.48;83.43;118439.88;5075544;28;20460;-69
2023/01/17 08:56:41;;;;;;;5.43;2.03;;;;;;;-143.48;82.44;118439.88;5075460;28;20413;-68
2023/01/17 08:59:09;;;;;;;7.38;2.05;;;;;;;-143.48;82.91;118439.88;5057581;28;20016;-68
2023/01/17 09:01:39;;;;;;;5.03;2.00;;;;;;;-143.48;83.38;118439.88;5076098;28;20039;-70
2023/01/17 09:04:04;;;;;;;7.75;1.90;;;;;;;-143.48;81.76;118439.88;5057349;28;20024;-69
2023/01/17 09:06:30;;;;;;;7.20;2.22;;;;;;;-143.48;81.03;118439.88;5057326;28;20069;-70
2023/01/17 09:08:55;;;;;;;6.97;2.40;;;;;;;-143.48;79.35;118439.88;5057208;28;20050;-69
2023/01/17 09:11:21;;;;;;;8.10;2.40;;;;;;;-143.48;80.37;118439.88;5075259;28;20021;-69
2023/01/17 09:13:46;;;;;;;6.60;2.10;;;;;;;-143.48;78.98;118439.88;5081363;28;20036;-70
2023/01/17 09:16:12;;;;;;;7.32;1.95;;;;;;;-143.48;77.64;118439.88;5085802;28;20070;-69
2023/01/17 09:18:38;;;;;;;7.10;2.35;;;;;;;-143.48;77.04;118439.88;5056852;28;20028;-69
2023/01/17 09:21:14;;;;;;;9.93;2.30;;;;;;;-143.48;76.77;118439.88;5074734;28;20031;-69
2023/01/17 09:23:41;;;;;;;9.10;2.70;;;;;;;-143.48;77.27;118439.88;5074776;28;20028;-69
2023/01/17 09:26:06;;;;;;;6.90;2.30;;;;;;;-143.48;76.29;118439.88;5057072;28;20021;-69
2023/01/17 09:28:39;;;;;;;7.18;2.40;;;;;;;-143.48;76.27;118439.88;5074778;28;20383;-69
2023/01/17 09:31:07;;;;;;;15.80;3.35;;;;;;;-143.48;75.29;118439.88;5074760;28;20048;-69
2023/01/17 09:33:32;;;;;;;9.30;2.33;;;;;;;-143.48;75.83;118439.88;5081099;28;20024;-70
2023/01/17 09:36:00;;;;;;;9.98;2.20;;;;;;;-143.48;74.05;118439.88;5084097;28;20023;-68
2023/01/17 09:38:25;;;;;;;4.90;2.10;;;;;;;-143.48;75.46;118439.88;5074682;28;20016;-68
2023/01/17 09:40:51;;;;;;;6.63;1.90;;;;;;;-143.48;73.25;118439.88;5074510;28;20077;-68
2023/01/17 09:43:30;;;;;;;6.53;2.25;;;;;;;-143.48;72.74;118439.88;5074410;28;20031;-68
2023/01/17 09:45:55;;;;;;;6.05;2.20;;;;;;;-143.48;72.29;118439.88;5073933;28;20071;-68
2023/01/17 09:48:32;;;;;;;7.32;1.98;;;;;;;-143.48;70.56;118439.88;5074031;28;20052;-67
2023/01/17 09:51:06;;;;;;;9.07;2.28;;;;;;;-143.48;70.84;118439.88;5074315;28;20386;-69
2023/01/17 09:53:34;;;;;;;5.22;1.80;;;;;;;-143.48;72.03;118439.88;5074300;28;20028;-68
2023/01/17 09:56:09;;;;;;;6.55;2.20;;;;;;;-143.48;71.01;118439.88;5056347;28;20077;-68
2023/01/17 09:58:42;;;;;;;11.15;2.10;;;;;;;-143.48;70.97;118439.88;5056247;28;20047;-68
2023/01/17 10:01:08;;;;;;;7.15;1.98;;;;;;;-143.48;70.02;118439.88;5073675;28;20031;-68
2023/01/17 10:03:41;;;;;;;7.13;1.77;;;;;;;-143.48;67.79;118439.88;5056112;28;20395;-68
2023/01/17 10:06:14;;;;;;;5.70;2.45;;;;;;;-143.48;68.88;118439.88;5074530;28;20051;-68
2023/01/17 10:09:06;;;;;;;5.28;2.00;;;;;;;-143.48;69.73;118439.88;5074098;28;20093;-69
2023/01/17 10:12:12;;;;;;;5.55;1.90;;;;;;;-143.48;67.02;118439.88;5074295;28;20012;-68
2023/01/17 10:15:01;;;;;;;10.95;2.63;;;;;;;-143.48;67.87;118439.88;5074022;28;20114;-68
2023/01/17 10:17:51;;;;;;;6.07;2.80;;;;;;;-143.48;65.49;118439.88;5074656;28;20031;-69
2023/01/17 10:20:35;;;;;;;6.30;2.20;;;;;;;-143.48;66.03;118439.88;5073804;28;20029;-68
2023/01/17 10:23:29;;;;;;;6.00;2.40;;;;;;;-143.48;64.03;118439.88;5073766;28;20602;-69
2023/01/17 10:26:07;;;;;;;6.32;2.13;;;;;;;-143.48;63.96;118439.88;5028715;28;20163;-69
2023/01/17 10:28:38;;;;;;;5.65;2.10;;;;;;;-143.48;64.11;118439.88;5055812;28;20066;-69
2023/01/17 10:31:09;;;;;;;6.05;2.30;;;;;;;-143.48;61.67;118439.88;5073727;28;20028;-68
2023/01/17 10:33:48;;;;;;;10.07;2.70;;;;;;;-143.48;55.01;118439.88;5073616;28;20066;-69
2023/01/17 10:36:22;;;;;;;7.18;2.78;;;;;;;-143.48;49.88;118439.88;5055629;28;20455;-69
2023/01/17 10:38:54;;;;;;;6.30;2.40;;;;;;;-143.48;50.42;118439.88;5073710;28;20020;-69
2023/01/17 10:41:43;;;;;;;9.80;2.38;;;;;;;-143.48;49.57;118439.88;5074269;28;20063;-69
2023/01/17 10:44:24;;;;;;;8.55;2.50;;;;;;;-143.48;49.13;118439.88;5073460;28;20031;-70
2023/01/17 10:47:05;;;;;;;5.53;2.30;;;;;;;-143.48;39.47;118439.88;5073475;28;20445;-71
2023/01/17 10:49:30;;;;;;;8.18;2.70;;;;;;;-143.48;39.54;118439.88;5074768;28;20049;-69
2023/01/17 10:52:29;;;;;;;5.80;2.50;;;;;;;-143.48;43.36;118439.88;5073863;28;20107;-70
2023/01/17 10:55:15;;;;;;;7.88;2.20;;;;;;;-143.48;41.26;118439.88;5073354;28;20025;-70
2023/01/17 10:57:43;;;;;;;7.47;2.17;;;;;;;-143.48;43.52;118439.88;5073375;28;20335;-70
2023/01/17 11:00:12;;;;;;;5.35;2.08;;;;;;;-143.48;48.55;118439.88;5073774;28;20107;-70
2023/01/17 11:02:46;;;;;;;4.57;2.08;;;;;;;-143.48;47.78;118439.88;5055210;28;20052;-70
2023/01/17 11:05:21;;;;;;;4.65;2.00;;;;;;;-143.48;44.12;118439.88;5073194;28;20082;-70
2023/01/17 11:08:16;;;;;;;8.25;2.13;;;;;;;-143.48;35.17;118439.88;5055393;28;20095;-70
2023/01/17 11:10:52;;;;;;;6.60;2.08;;;;;;;-143.48;36.34;118439.88;5052045;28;20041;-70
2023/01/17 11:13:18;;;;;;;7.90;2.10;;;;;;;-143.48;34.80;118439.88;5074668;28;20050;-70
2023/01/17 11:15:48;;;;;;;9.00;2.47;;;;;;;-143.48;36.41;118439.88;5077313;28;20017;-71
2023/01/17 11:18:16;;;;;;;6.32;2.50;;;;;;;-143.48;45.94;118439.88;5077406;28;20032;-71
2023/01/17 11:20:42;;;;;;;6.60;2.20;;;;;;;-143.48;51.17;118439.88;5077363;28;20031;-69
2023/01/17 11:23:16;;;;;;;7.25;2.13;;;;;;;-143.48;52.70;118439.88;5076195;28;20017;-70
2023/01/17 11:25:48;;;;;;;8.13;2.30;;;;;;;-143.48;54.86;118439.88;5077447;28;20024;-70
2023/01/17 11:28:19;;;;;;;12.88;2.30;;;;;;;-143.48;40.57;118439.88;5078469;28;20559;-70
2023/01/17 11:31:06;;;;;;;5.95;1.90;;;;;;;-143.48;36.95;118439.88;5066041;28;20032;-70
2023/01/17 11:33:44;;;;;;;5.82;2.17;;;;;;;-143.48;38.05;118439.88;5077654;28;20024;-70
2023/01/17 11:36:23;;;;;;;8.77;2.10;;;;;;;-143.48;40.79;118439.88;5077353;28;20366;-70
2023/01/17 11:38:55;;;;;;;6.70;2.40;;;;;;;-143.48;45.89;118439.88;5059013;28;20052;-70
2023/01/17 11:41:22;;;;;;;7.10;2.20;;;;;;;-143.48;51.31;118439.88;5076579;28;20024;-70
2023/01/17 11:43:50;;;;;;;5.68;2.15;;;;;;;-143.48;54.28;118439.88;5077125;28;20024;-70
2023/01/17 11:46:19;;;;;;;6.35;2.45;;;;;;;-143.48;57.30;118439.88;5077103;28;20071;-70
2023/01/17 11:48:58;;;;;;;7.60;2.20;;;;;;;-143.48;57.80;118439.88;5087385;28;20052;-70
2023/01/17 11:51:28;;;;;;;6.72;2.30;;;;;;;-143.48;60.89;118439.88;5079530;28;20100;-69
2023/01/17 11:54:06;;;;;;;7.88;2.53;;;;;;;-143.48;59.83;118439.88;5076786;28;20028;-70
2023/01/17 11:56:34;;;;;;;5.05;2.10;;;;;;;-143.48;56.76;118439.88;5078804;28;20154;-70
2023/01/17 11:59:27;;;;;;;8.10;2.20;;;;;;;-143.48;43.24;118439.88;5059854;28;20024;-70
2023/01/17 12:02:15;;;;;;;6.05;2.20;;;;;;;-143.48;37.83;118439.88;5059498;28;20021;-70
2023/01/17 12:04:46;;;;;;;4.88;2.20;;;;;;;-143.48;40.83;118439.88;5077073;28;20078;-70
2023/01/17 12:08:05;;;;;;;5.32;2.13;;;;;;;-143.48;51.52;118439.88;5076835;28;20036;-70
2023/01/17 12:11:15;;;;;;;6.72;2.53;;;;;;;-143.48;56.66;118439.88;4960063;28;20030;-70
2023/01/17 12:14:01;;;;;;;8.27;2.15;;;;;;;-143.48;57.05;118439.88;5034477;28;20029;-70
2023/01/17 12:16:52;;;;;;;4.00;1.92;;;;;;;-143.48;43.57;118439.88;5034301;28;20079;-70
2023/01/17 12:19:32;;;;;;;5.60;2.22;;;;;;;-143.48;38.19;118439.88;5067362;28;20081;-70
2023/01/17 12:22:16;;;;;;;3.85;1.90;;;;;;;-143.48;37.31;118439.88;5076051;28;20036;-70
2023/01/17 12:24:51;;;;;;;4.03;2.00;;;;;;;-143.48;36.57;118439.88;5075835;28;20021;-72
2023/01/17 12:27:33;;;;;;;6.22;2.10;;;;;;;-143.48;36.70;118439.88;5058325;28;20028;-71
2023/01/17 12:30:23;;;;;;;6.30;1.98;;;;;;;-143.48;37.07;118439.88;5058627;28;20429;-71
2023/01/17 12:33:17;;;;;;;5.05;1.85;;;;;;;-143.48;36.00;118439.88;5058226;28;20391;-71
2023/01/17 12:36:00;;;;;;;4.55;2.00;;;;;;;-143.48;35.63;118439.88;5075959;28;20096;-70
2023/01/17 12:38:45;;;;;;;4.45;2.10;;;;;;;-143.48;35.21;118439.88;5082477;28;20036;-70
2023/01/17 12:41:23;;;;;;;6.80;2.30;;;;;;;-143.48;36.50;118439.88;5057857;28;20046;-71
2023/01/17 12:43:52;;;;;;;3.20;1.80;;;;;;;-143.48;35.17;118439.88;5075048;28;20039;-71
2023/01/17 12:46:42;;;;;;;5.47;2.08;;;;;;;-143.48;35.01;118439.88;5058782;28;20021;-71
2023/01/17 12:49:30;;;;;;;4.20;2.15;;;;;;;-143.48;35.94;118439.88;5074372;28;20056;-69